Time;durP1;ratioP1;P1;durP2;ratioP2;P2;SDS_P1;SDS_P2;PMS_P1;PMS_P2;Temp;Humidity;BMP_temperature;BMP_pressure;BME280_temperature;BME280_humidity;BME280_pressure;Samples;Min_cycle;Max_cycle;Signal;HPM_P1;HPM_P2
2021/06/16 00:00:03;;;;;;;;;;;26.80;40.20;;;;;;4974382;28;75489;-73
2021/06/16 00:02:28;;;;;;;;;;;26.70;40.10;;;;;;4974247;28;76881;-72
2021/06/16 00:04:54;;;;;;;;;;;26.70;39.90;;;;;;4973281;28;77298;-72
2021/06/16 00:07:19;;;;;;;;;;;26.70;39.80;;;;;;4974892;28;75361;-67
2021/06/16 00:09:45;;;;;;;;;;;26.70;40.00;;;;;;4973058;28;77792;-67
2021/06/16 00:12:11;;;;;;;;;;;26.70;40.40;;;;;;4974408;28;76201;-68
2021/06/16 00:14:37;;;;;;;;;;;26.80;40.30;;;;;;4972798;28;77040;-72
2021/06/16 00:17:03;;;;;;;;;;;26.70;40.20;;;;;;4973197;28;78087;-71
2021/06/16 00:19:28;;;;;;;;;;;26.70;40.30;;;;;;4974044;28;75289;-70
2021/06/16 00:21:54;;;;;;;;;;;26.70;40.00;;;;;;4974618;28;75114;-68
2021/06/16 00:24:20;;;;;;;;;;;26.70;40.10;;;;;;4972930;28;75388;-73
2021/06/16 00:26:46;;;;;;;;;;;26.70;39.70;;;;;;4974464;28;74662;-72
2021/06/16 00:29:12;;;;;;;;;;;26.70;39.30;;;;;;4974388;28;75593;-71
2021/06/16 00:31:37;;;;;;;;;;;26.80;39.40;;;;;;4972662;28;75519;-70
2021/06/16 00:34:03;;;;;;;;;;;26.70;39.90;;;;;;4974433;28;75164;-68
2021/06/16 00:36:30;;;;;;;;;;;26.80;40.20;;;;;;4973002;28;77281;-70
2021/06/16 00:38:56;;;;;;;;;;;26.70;40.30;;;;;;4972604;28;75382;-70
2021/06/16 00:41:22;;;;;;;;;;;26.60;40.00;;;;;;4974709;28;74563;-70
2021/06/16 00:43:48;;;;;;;;;;;26.70;40.40;;;;;;4972316;28;77326;-69
2021/06/16 00:46:13;;;;;;;;;;;26.60;40.20;;;;;;4972617;28;78404;-71
2021/06/16 00:48:39;;;;;;;;;;;26.60;40.10;;;;;;4972680;28;78128;-72
2021/06/16 00:51:05;;;;;;;;;;;26.60;39.80;;;;;;4972889;28;76852;-69
2021/06/16 00:53:30;;;;;;;;;;;26.60;40.30;;;;;;4972668;28;77766;-70
2021/06/16 00:55:56;;;;;;;;;;;26.50;40.30;;;;;;4973738;28;75104;-68
2021/06/16 00:58:21;;;;;;;;;;;26.50;40.30;;;;;;4971978;28;76305;-66
2021/06/16 01:00:50;;;;;;;;;;;26.50;39.90;;;;;;4973608;28;74633;-67
2021/06/16 01:03:21;;;;;;;;;;;26.50;40.00;;;;;;4974132;28;75104;-68
2021/06/16 01:05:51;;;;;;;;;;;26.50;40.20;;;;;;4955533;28;96771;-69
2021/06/16 01:08:28;;;;;;;;;;;26.50;39.90;;;;;;4973924;28;75159;-68
2021/06/16 01:10:54;;;;;;;;;;;26.40;39.90;;;;;;4974109;28;74395;-69
2021/06/16 01:13:26;;;;;;;;;;;26.50;39.70;;;;;;4973687;28;74716;-71
2021/06/16 01:16:13;;;;;;;;;;;26.50;39.90;;;;;;4973875;28;74377;-72
2021/06/16 01:18:51;;;;;;;;;;;26.50;39.60;;;;;;4973461;28;75445;-69
2021/06/16 01:21:17;;;;;;;;;;;26.50;39.50;;;;;;4973222;28;74914;-64
2021/06/16 01:23:55;;;;;;;;;;;26.50;39.60;;;;;;4973523;28;75363;-70
2021/06/16 01:26:27;;;;;;;;;;;26.50;39.40;;;;;;4974302;28;74384;-73
2021/06/16 01:28:55;;;;;;;;;;;26.50;39.40;;;;;;4972015;28;77975;-71
2021/06/16 01:31:21;;;;;;;;;;;26.40;39.60;;;;;;4973448;28;75349;-72
2021/06/16 01:33:48;;;;;;;;;;;26.40;40.10;;;;;;4973810;28;74452;-70
2021/06/16 01:36:14;;;;;;;;;;;26.40;41.00;;;;;;4971931;28;77609;-69
2021/06/16 01:38:41;;;;;;;;;;;26.30;40.50;;;;;;4973423;28;74598;-69
2021/06/16 01:41:07;;;;;;;;;;;26.30;40.40;;;;;;4971981;28;77201;-72
2021/06/16 01:43:33;;;;;;;;;;;26.30;40.40;;;;;;4973707;28;74516;-69
2021/06/16 01:46:02;;;;;;;;;;;26.20;40.70;;;;;;4972966;28;75252;-69
2021/06/16 01:48:28;;;;;;;;;;;26.20;40.30;;;;;;4973636;28;74442;-70
2021/06/16 01:50:54;;;;;;;;;;;26.20;40.40;;;;;;4971638;28;75428;-67
2021/06/16 01:53:21;;;;;;;;;;;26.20;40.30;;;;;;4971407;28;76815;-67
2021/06/16 01:55:48;;;;;;;;;;;26.20;40.60;;;;;;4973513;28;75424;-70
2021/06/16 01:58:14;;;;;;;;;;;26.10;40.30;;;;;;4972557;28;75274;-67
2021/06/16 02:00:41;;;;;;;;;;;26.10;40.50;;;;;;4973103;28;74503;-71
2021/06/16 02:03:07;;;;;;;;;;;26.10;40.50;;;;;;4971802;28;76381;-69
2021/06/16 02:05:33;;;;;;;;;;;26.00;40.30;;;;;;4971820;28;78371;-69
2021/06/16 02:08:01;;;;;;;;;;;26.10;40.60;;;;;;4971474;28;78100;-71
2021/06/16 02:10:32;;;;;;;;;;;26.00;40.80;;;;;;4972455;28;76456;-69
2021/06/16 02:12:59;;;;;;;;;;;26.00;40.60;;;;;;4971718;28;75633;-69
2021/06/16 02:15:28;;;;;;;;;;;25.90;40.30;;;;;;4973044;28;74704;-68
2021/06/16 02:17:55;;;;;;;;;;;26.00;40.70;;;;;;4973346;28;74620;-70
2021/06/16 02:20:21;;;;;;;;;;;25.90;40.20;;;;;;4971262;28;78489;-67
2021/06/16 02:22:46;;;;;;;;;;;25.90;40.20;;;;;;4972691;28;75826;-71
2021/06/16 02:25:12;;;;;;;;;;;26.00;40.10;;;;;;4972976;28;74979;-69
2021/06/16 02:27:38;;;;;;;;;;;25.90;40.20;;;;;;4971118;28;78228;-70
2021/06/16 02:30:05;;;;;;;;;;;25.90;40.10;;;;;;4971244;28;77239;-69
2021/06/16 02:32:30;;;;;;;;;;;25.90;40.00;;;;;;4971557;28;75530;-65
2021/06/16 02:34:57;;;;;;;;;;;25.90;39.90;;;;;;4975971;28;74729;-70
2021/06/16 02:37:23;;;;;;;;;;;26.00;39.60;;;;;;4975892;28;74393;-70
2021/06/16 02:39:56;;;;;;;;;;;26.00;39.40;;;;;;4976010;28;75805;-71
2021/06/16 02:42:22;;;;;;;;;;;26.00;39.80;;;;;;4976156;28;75697;-68
2021/06/16 02:44:49;;;;;;;;;;;26.00;39.80;;;;;;4974156;28;74750;-69
2021/06/16 02:47:15;;;;;;;;;;;26.00;39.80;;;;;;4976149;28;75183;-69
2021/06/16 02:49:45;;;;;;;;;;;25.90;40.00;;;;;;4976335;28;74572;-69
2021/06/16 02:52:14;;;;;;;;;;;25.90;39.70;;;;;;4975934;28;75884;-68
2021/06/16 02:54:42;;;;;;;;;;;25.90;39.60;;;;;;4974210;28;75653;-69
2021/06/16 02:57:08;;;;;;;;;;;25.90;39.70;;;;;;4975905;28;75332;-68
2021/06/16 02:59:33;;;;;;;;;;;25.80;39.70;;;;;;4975508;28;75042;-68
2021/06/16 03:01:59;;;;;;;;;;;25.80;39.60;;;;;;4974875;28;77341;-66
2021/06/16 03:04:26;;;;;;;;;;;25.70;39.70;;;;;;4976294;28;74425;-64
2021/06/16 03:06:56;;;;;;;;;;;25.70;40.00;;;;;;4975822;28;74405;-67
2021/06/16 03:09:22;;;;;;;;;;;25.70;39.90;;;;;;4974105;28;76363;-65
2021/06/16 03:11:50;;;;;;;;;;;25.60;40.20;;;;;;4974441;28;77014;-66
2021/06/16 03:14:16;;;;;;;;;;;25.60;40.30;;;;;;4975525;28;75341;-65
2021/06/16 03:16:42;;;;;;;;;;;25.60;40.10;;;;;;4974060;28;75452;-66
2021/06/16 03:19:08;;;;;;;;;;;25.50;40.80;;;;;;4975207;28;75776;-66
2021/06/16 03:21:35;;;;;;;;;;;25.50;41.10;;;;;;4974868;28;76490;-69
2021/06/16 03:24:01;;;;;;;;;;;25.50;40.90;;;;;;4975449;28;74513;-67
2021/06/16 03:26:28;;;;;;;;;;;25.40;42.20;;;;;;4975699;28;74837;-66
2021/06/16 03:28:54;;;;;;;;;;;25.40;41.50;;;;;;4974342;28;75458;-69
2021/06/16 03:31:20;;;;;;;;;;;25.40;41.00;;;;;;4975186;28;75117;-67
2021/06/16 03:33:46;;;;;;;;;;;25.30;42.00;;;;;;4973947;28;77857;-67
2021/06/16 03:36:12;;;;;;;;;;;25.30;41.40;;;;;;4975082;28;75257;-67
2021/06/16 03:38:39;;;;;;;;;;;25.20;42.30;;;;;;4973973;28;75801;-69
2021/06/16 03:41:06;;;;;;;;;;;25.20;41.40;;;;;;4973417;28;77011;-68
2021/06/16 03:43:32;;;;;;;;;;;25.20;41.80;;;;;;4976014;28;74428;-67
2021/06/16 03:45:58;;;;;;;;;;;25.20;42.10;;;;;;4974793;28;74538;-68
2021/06/16 03:48:24;;;;;;;;;;;25.20;41.10;;;;;;4974897;28;75276;-67
2021/06/16 03:50:50;;;;;;;;;;;25.20;41.00;;;;;;4973597;28;75003;-68
2021/06/16 03:53:16;;;;;;;;;;;25.30;40.70;;;;;;4974994;28;75291;-72
2021/06/16 03:55:43;;;;;;;;;;;25.30;41.00;;;;;;4973708;28;75437;-67
2021/06/16 03:58:10;;;;;;;;;;;25.30;40.80;;;;;;4974421;28;75246;-67
2021/06/16 04:00:36;;;;;;;;;;;25.30;40.90;;;;;;4974776;28;75221;-68
2021/06/16 04:03:04;;;;;;;;;;;25.30;40.70;;;;;;4973478;28;77487;-68
2021/06/16 04:05:30;;;;;;;;;;;25.30;41.10;;;;;;4974719;28;75223;-68
2021/06/16 04:07:57;;;;;;;;;;;25.30;41.60;;;;;;4973466;28;77827;-69
2021/06/16 04:10:23;;;;;;;;;;;25.30;42.00;;;;;;4974682;28;75195;-66
2021/06/16 04:12:49;;;;;;;;;;;25.20;41.90;;;;;;4973741;28;75492;-65
2021/06/16 04:15:16;;;;;;;;;;;25.20;41.80;;;;;;4974348;28;75182;-66
2021/06/16 04:17:41;;;;;;;;;;;25.10;41.50;;;;;;4974631;28;75239;-68
2021/06/16 04:20:07;;;;;;;;;;;25.10;41.30;;;;;;4973055;28;75382;-68
2021/06/16 04:22:33;;;;;;;;;;;25.10;41.20;;;;;;4974830;28;74593;-66
2021/06/16 04:24:59;;;;;;;;;;;25.10;40.90;;;;;;4974649;28;75342;-71
2021/06/16 04:27:24;;;;;;;;;;;25.10;41.10;;;;;;4973035;28;76927;-72
2021/06/16 04:29:50;;;;;;;;;;;25.10;41.20;;;;;;4973041;28;76337;-70
2021/06/16 04:32:16;;;;;;;;;;;25.10;41.30;;;;;;4973015;28;77284;-69
2021/06/16 04:34:41;;;;;;;;;;;25.10;41.00;;;;;;4973118;28;76077;-71
2021/06/16 04:37:07;;;;;;;;;;;25.20;40.90;;;;;;4973154;28;77525;-70
2021/06/16 04:39:33;;;;;;;;;;;25.10;40.30;;;;;;4974076;28;75205;-71
2021/06/16 04:41:59;;;;;;;;;;;25.10;40.70;;;;;;4973013;28;77134;-71
2021/06/16 04:44:25;;;;;;;;;;;25.10;40.40;;;;;;4972523;28;75815;-68
2021/06/16 04:46:50;;;;;;;;;;;25.10;40.80;;;;;;4974287;28;74478;-70
2021/06/16 04:49:16;;;;;;;;;;;25.10;40.50;;;;;;4973980;28;75245;-72
2021/06/16 04:51:42;;;;;;;;;;;25.00;40.40;;;;;;4974128;28;75725;-72
2021/06/16 04:54:10;;;;;;;;;;;24.90;40.30;;;;;;4974708;28;74501;-68
2021/06/16 04:56:39;;;;;;;;;;;24.90;40.50;;;;;;4973413;28;75405;-72
2021/06/16 04:59:05;;;;;;;;;;;25.00;40.60;;;;;;4973715;28;75171;-70
2021/06/16 05:01:30;;;;;;;;;;;24.90;40.50;;;;;;4973931;28;75504;-69
2021/06/16 05:03:56;;;;;;;;;;;25.00;40.50;;;;;;4974179;28;74547;-68
2021/06/16 05:06:22;;;;;;;;;;;25.00;40.50;;;;;;4974052;28;74514;-71
2021/06/16 05:08:47;;;;;;;;;;;25.00;40.40;;;;;;4973618;28;75662;-72
2021/06/16 05:11:13;;;;;;;;;;;25.00;40.50;;;;;;4974487;28;74404;-72
2021/06/16 05:13:39;;;;;;;;;;;25.00;40.90;;;;;;4972288;28;77141;-70
2021/06/16 05:16:04;;;;;;;;;;;25.00;40.70;;;;;;4972027;28;77765;-73
2021/06/16 05:18:31;;;;;;;;;;;25.00;40.90;;;;;;4971953;28;77972;-70
2021/06/16 05:20:57;;;;;;;;;;;24.90;40.60;;;;;;4972348;28;75346;-68
2021/06/16 05:23:26;;;;;;;;;;;24.90;41.40;;;;;;4972058;28;75269;-70
2021/06/16 05:25:52;;;;;;;;;;;24.90;41.60;;;;;;4969052;28;75568;-66
2021/06/16 05:28:18;;;;;;;;;;;24.80;42.50;;;;;;4972640;28;74632;-70
2021/06/16 05:30:43;;;;;;;;;;;24.70;41.70;;;;;;4970843;28;74681;-70
2021/06/16 05:33:09;;;;;;;;;;;24.70;41.80;;;;;;4977063;28;75874;-64
2021/06/16 05:35:35;;;;;;;;;;;24.70;41.50;;;;;;4977689;28;75117;-67
2021/06/16 05:38:00;;;;;;;;;;;24.60;41.50;;;;;;4978898;28;75372;-67
2021/06/16 05:40:26;;;;;;;;;;;24.70;41.70;;;;;;4976170;28;76044;-66
2021/06/16 05:42:52;;;;;;;;;;;24.90;41.70;;;;;;4977811;28;75568;-64
2021/06/16 05:45:17;;;;;;;;;;;24.90;41.20;;;;;;4970393;28;76273;-69
2021/06/16 05:47:43;;;;;;;;;;;24.90;41.00;;;;;;4977107;28;75744;-70
2021/06/16 05:50:09;;;;;;;;;;;24.90;41.50;;;;;;4970799;28;75824;-66
2021/06/16 05:52:34;;;;;;;;;;;24.90;41.30;;;;;;4971665;28;76036;-69
2021/06/16 05:55:00;;;;;;;;;;;24.90;41.60;;;;;;4983227;28;76783;-68
2021/06/16 05:57:26;;;;;;;;;;;24.90;41.40;;;;;;4986494;28;75063;-68
2021/06/16 05:59:51;;;;;;;;;;;24.90;41.30;;;;;;4982075;28;75305;-67
2021/06/16 06:02:17;;;;;;;;;;;24.90;41.20;;;;;;4979182;28;76772;-65
2021/06/16 06:04:42;;;;;;;;;;;24.90;42.00;;;;;;4982385;28;74992;-66
2021/06/16 06:07:08;;;;;;;;;;;24.80;41.40;;;;;;4981970;28;75435;-64
2021/06/16 06:09:34;;;;;;;;;;;24.90;41.80;;;;;;4974272;28;76200;-66
2021/06/16 06:11:59;;;;;;;;;;;25.00;41.90;;;;;;4981013;28;75397;-66
2021/06/16 06:14:25;;;;;;;;;;;25.00;41.40;;;;;;4979294;28;77270;-63
2021/06/16 06:16:51;;;;;;;;;;;25.00;41.50;;;;;;4977972;28;75908;-64
2021/06/16 06:19:16;;;;;;;;;;;25.10;41.30;;;;;;4978654;28;77862;-64
2021/06/16 06:21:42;;;;;;;;;;;25.10;41.40;;;;;;4979162;28;75105;-62
2021/06/16 06:24:08;;;;;;;;;;;25.10;41.80;;;;;;4981420;28;75110;-73
2021/06/16 06:26:34;;;;;;;;;;;25.00;42.10;;;;;;4982745;28;78267;-71
2021/06/16 06:29:00;;;;;;;;;;;25.00;41.80;;;;;;4977909;28;75849;-71
2021/06/16 06:31:25;;;;;;;;;;;25.00;42.00;;;;;;4982690;28;76455;-69
2021/06/16 06:33:51;;;;;;;;;;;25.10;42.20;;;;;;4972121;28;77281;-71
2021/06/16 06:36:18;;;;;;;;;;;25.10;41.90;;;;;;4976503;28;76458;-72
2021/06/16 06:38:44;;;;;;;;;;;25.20;41.70;;;;;;4987409;28;75157;-70
2021/06/16 06:41:12;;;;;;;;;;;25.30;41.70;;;;;;4987583;28;78183;-69
2021/06/16 06:43:38;;;;;;;;;;;25.40;41.30;;;;;;4975246;28;76192;-71
2021/06/16 06:46:03;;;;;;;;;;;25.50;41.50;;;;;;4979782;28;75059;-69
2021/06/16 06:48:29;;;;;;;;;;;25.60;40.90;;;;;;4988284;28;75714;-69
2021/06/16 06:50:55;;;;;;;;;;;25.70;41.30;;;;;;4983524;28;76691;-70
2021/06/16 06:53:22;;;;;;;;;;;25.70;41.30;;;;;;4973742;28;75046;-70
2021/06/16 06:55:47;;;;;;;;;;;25.80;41.90;;;;;;4982567;28;78208;-69
2021/06/16 06:58:13;;;;;;;;;;;25.90;42.30;;;;;;4989208;28;76405;-68
2021/06/16 07:00:39;;;;;;;;;;;25.90;42.90;;;;;;4981948;28;75680;-69
2021/06/16 07:03:04;;;;;;;;;;;25.90;43.20;;;;;;4981420;28;75019;-70
2021/06/16 07:05:30;;;;;;;;;;;26.00;43.10;;;;;;4988542;28;75109;-69
2021/06/16 07:07:56;;;;;;;;;;;26.10;43.10;;;;;;4986285;28;75174;-68
2021/06/16 07:10:21;;;;;;;;;;;26.20;43.50;;;;;;4980047;28;77887;-69
2021/06/16 07:12:47;;;;;;;;;;;26.20;43.80;;;;;;4974878;28;75784;-69
2021/06/16 07:15:13;;;;;;;;;;;26.00;43.40;;;;;;4974512;28;76189;-69
2021/06/16 07:17:39;;;;;;;;;;;26.00;43.60;;;;;;4981492;28;75655;-69
2021/06/16 07:20:05;;;;;;;;;;;25.90;43.70;;;;;;4971411;28;74621;-70
2021/06/16 07:22:31;;;;;;;;;;;25.70;44.10;;;;;;4975428;28;77010;-69
2021/06/16 07:24:56;;;;;;;;;;;25.60;44.40;;;;;;4975133;28;76259;-69
2021/06/16 07:27:22;;;;;;;;;;;25.60;45.00;;;;;;4979932;28;75832;-69
2021/06/16 07:29:48;;;;;;;;;;;25.60;45.10;;;;;;4990053;28;77200;-69
2021/06/16 07:32:16;;;;;;;;;;;25.70;45.10;;;;;;4975530;28;75755;-69
2021/06/16 07:34:41;;;;;;;;;;;25.70;44.50;;;;;;4973063;28;78170;-69
2021/06/16 07:37:07;;;;;;;;;;;25.80;43.80;;;;;;4986418;28;75444;-69
2021/06/16 07:39:33;;;;;;;;;;;26.00;43.80;;;;;;4974692;28;75695;-69
2021/06/16 07:41:59;;;;;;;;;;;26.20;43.00;;;;;;4983054;28;75108;-69
2021/06/16 07:44:25;;;;;;;;;;;26.30;42.50;;;;;;4976469;28;76452;-69
2021/06/16 07:46:51;;;;;;;;;;;26.40;42.30;;;;;;4986019;28;75209;-69
2021/06/16 07:49:17;;;;;;;;;;;26.30;42.60;;;;;;4975877;28;77118;-68
2021/06/16 07:51:43;;;;;;;;;;;26.30;42.40;;;;;;4978261;28;75294;-70
2021/06/16 07:54:11;;;;;;;;;;;26.10;42.50;;;;;;4971332;28;75918;-70
2021/06/16 07:56:38;;;;;;;;;;;26.30;42.80;;;;;;4983331;28;76412;-69
2021/06/16 07:59:03;;;;;;;;;;;26.50;42.70;;;;;;4974262;28;74556;-68
2021/06/16 08:01:29;;;;;;;;;;;26.60;42.60;;;;;;4974730;28;75723;-69
2021/06/16 08:03:55;;;;;;;;;;;26.60;42.30;;;;;;4982475;28;75900;-68
2021/06/16 08:06:21;;;;;;;;;;;26.60;42.40;;;;;;4976569;28;75254;-68
2021/06/16 08:08:47;;;;;;;;;;;26.70;42.30;;;;;;4981857;28;76730;-70
2021/06/16 08:11:13;;;;;;;;;;;26.80;42.20;;;;;;4979934;28;76405;-69
2021/06/16 08:13:39;;;;;;;;;;;26.90;42.10;;;;;;4989040;28;75283;-70
2021/06/16 08:16:05;;;;;;;;;;;26.90;42.00;;;;;;4980841;28;77734;-70
2021/06/16 08:18:30;;;;;;;;;;;26.90;42.10;;;;;;4972956;28;75464;-69
2021/06/16 08:20:56;;;;;;;;;;;26.90;42.20;;;;;;4972195;28;77119;-70
2021/06/16 08:23:21;;;;;;;;;;;27.10;41.80;;;;;;4989787;28;78239;-69
2021/06/16 08:25:47;;;;;;;;;;;27.20;41.60;;;;;;4984838;28;75809;-69
2021/06/16 08:28:13;;;;;;;;;;;27.30;41.60;;;;;;4980624;28;76019;-70
2021/06/16 08:30:39;;;;;;;;;;;27.30;41.50;;;;;;4980393;28;76858;-69
2021/06/16 08:33:04;;;;;;;;;;;27.20;42.20;;;;;;4982586;28;75005;-68
2021/06/16 08:35:31;;;;;;;;;;;27.10;42.30;;;;;;4983031;28;75421;-69
2021/06/16 08:37:57;;;;;;;;;;;27.00;42.20;;;;;;4978679;28;76984;-69
2021/06/16 08:40:23;;;;;;;;;;;27.00;42.60;;;;;;4982962;28;76463;-69
2021/06/16 08:42:49;;;;;;;;;;;27.30;42.30;;;;;;4980918;28;75107;-69
2021/06/16 08:45:16;;;;;;;;;;;27.60;42.00;;;;;;4976978;28;75198;-69
2021/06/16 08:47:44;;;;;;;;;;;27.90;41.40;;;;;;4985122;28;76838;-69
2021/06/16 08:50:10;;;;;;;;;;;28.10;40.70;;;;;;4972719;28;75857;-70
2021/06/16 08:52:36;;;;;;;;;;;28.10;40.50;;;;;;4974664;28;76407;-70
2021/06/16 08:55:03;;;;;;;;;;;28.10;40.60;;;;;;4972502;28;78267;-69
2021/06/16 08:57:29;;;;;;;;;;;28.30;40.40;;;;;;4979011;28;76427;-70
2021/06/16 08:59:54;;;;;;;;;;;28.30;39.90;;;;;;4982190;28;75363;-69
2021/06/16 09:02:20;;;;;;;;;;;28.30;40.20;;;;;;4981452;28;76849;-69
2021/06/16 09:04:50;;;;;;;;;;;28.40;39.90;;;;;;4973512;28;75627;-69
2021/06/16 09:07:20;;;;;;;;;;;28.50;40.10;;;;;;4971084;28;75142;-70
2021/06/16 09:09:47;;;;;;;;;;;28.50;39.70;;;;;;4981002;28;78288;-69
2021/06/16 09:12:18;;;;;;;;;;;28.40;39.60;;;;;;4984677;28;75155;-68
2021/06/16 09:14:53;;;;;;;;;;;28.40;39.90;;;;;;4978198;28;77659;-69
2021/06/16 09:17:21;;;;;;;;;;;28.60;39.80;;;;;;4973151;28;74610;-69
2021/06/16 09:19:56;;;;;;;;;;;28.70;39.20;;;;;;4974364;28;76580;-69
2021/06/16 09:22:29;;;;;;;;;;;28.80;39.10;;;;;;4981392;28;76958;-70
2021/06/16 09:24:56;;;;;;;;;;;28.80;38.90;;;;;;4983615;28;76323;-70
2021/06/16 09:27:41;;;;;;;;;;;28.90;39.20;;;;;;4981211;28;77317;-69
2021/06/16 09:30:27;;;;;;;;;;;28.90;38.40;;;;;;4979790;28;75209;-69
2021/06/16 09:32:56;;;;;;;;;;;28.90;37.60;;;;;;4977311;28;78558;-69
2021/06/16 09:35:23;;;;;;;;;;;29.00;37.40;;;;;;4980216;28;74593;-68
2021/06/16 09:37:49;;;;;;;;;;;29.00;37.40;;;;;;4969605;28;77243;-69
2021/06/16 09:40:23;;;;;;;;;;;29.00;37.50;;;;;;4988828;28;77372;-69
2021/06/16 09:42:54;;;;;;;;;;;29.30;36.90;;;;;;4982131;28;76628;-69
2021/06/16 09:45:19;;;;;;;;;;;29.70;37.10;;;;;;4990328;28;75327;-69
2021/06/16 09:47:45;;;;;;;;;;;30.10;36.40;;;;;;4988973;28;76316;-70
2021/06/16 09:50:11;;;;;;;;;;;30.40;36.00;;;;;;4974527;28;75438;-67
2021/06/16 09:52:43;;;;;;;;;;;30.40;35.50;;;;;;4976846;28;75757;-70
2021/06/16 09:55:20;;;;;;;;;;;30.40;35.20;;;;;;4986068;28;75357;-69
2021/06/16 09:58:02;;;;;;;;;;;30.40;35.90;;;;;;4987373;28;78580;-70
2021/06/16 10:00:32;;;;;;;;;;;30.40;35.00;;;;;;4969780;28;78398;-70
2021/06/16 10:03:14;;;;;;;;;;;30.30;35.40;;;;;;4985139;28;75299;-70
2021/06/16 10:05:59;;;;;;;;;;;30.40;34.80;;;;;;4985724;28;75211;-70
2021/06/16 10:08:24;;;;;;;;;;;30.40;35.10;;;;;;4974274;28;74990;-69
2021/06/16 10:10:50;;;;;;;;;;;30.40;34.30;;;;;;4979145;28;77028;-70
2021/06/16 10:13:26;;;;;;;;;;;30.30;35.10;;;;;;4988585;28;76476;-69
2021/06/16 10:15:52;;;;;;;;;;;30.40;34.80;;;;;;4981560;28;78324;-69
2021/06/16 10:18:19;;;;;;;;;;;30.50;34.60;;;;;;4973269;28;74702;-69
2021/06/16 10:20:45;;;;;;;;;;;30.50;34.60;;;;;;4979647;28;76002;-68
2021/06/16 10:23:12;;;;;;;;;;;30.80;34.60;;;;;;4980353;28;75903;-68
2021/06/16 10:25:37;;;;;;;;;;;31.20;34.30;;;;;;4971495;28;75648;-69
2021/06/16 10:28:03;;;;;;;;;;;31.40;34.20;;;;;;4969805;28;75838;-69
2021/06/16 10:30:32;;;;;;;;;;;31.70;33.30;;;;;;4983341;28;74637;-69
2021/06/16 10:32:58;;;;;;;;;;;31.60;32.00;;;;;;4978585;28;75844;-69
2021/06/16 10:35:36;;;;;;;;;;;31.40;33.10;;;;;;4970318;28;75844;-69
2021/06/16 10:38:10;;;;;;;;;;;31.20;33.20;;;;;;4971397;28;76160;-69
2021/06/16 10:40:46;;;;;;;;;;;31.00;33.20;;;;;;4976150;28;78132;-68
2021/06/16 10:43:14;;;;;;;;;;;31.10;33.50;;;;;;4983473;28;76136;-69
2021/06/16 10:45:41;;;;;;;;;;;31.20;34.30;;;;;;4969369;28;75259;-68
2021/06/16 10:48:10;;;;;;;;;;;31.50;33.00;;;;;;4979817;28;75967;-68
2021/06/16 10:50:45;;;;;;;;;;;31.60;32.90;;;;;;4979957;28;75967;-69
2021/06/16 10:53:12;;;;;;;;;;;31.80;31.90;;;;;;4982501;28;76627;-69
2021/06/16 10:55:57;;;;;;;;;;;32.00;32.70;;;;;;4976997;28;75965;-70
2021/06/16 10:58:25;;;;;;;;;;;32.50;32.20;;;;;;4984601;28;76476;-68
2021/06/16 11:01:11;;;;;;;;;;;32.70;32.10;;;;;;4975655;28;75289;-67
2021/06/16 11:03:52;;;;;;;;;;;32.60;31.70;;;;;;4975922;28;75085;-68
2021/06/16 11:06:33;;;;;;;;;;;32.80;32.10;;;;;;4986939;28;77513;-68
2021/06/16 11:09:12;;;;;;;;;;;33.00;31.80;;;;;;4980034;28;76866;-69
2021/06/16 11:11:49;;;;;;;;;;;33.00;31.40;;;;;;4982113;28;75407;-68
2021/06/16 11:14:30;;;;;;;;;;;32.70;30.90;;;;;;4990986;28;74794;-69
2021/06/16 11:16:56;;;;;;;;;;;32.40;30.80;;;;;;4991157;28;77461;-72
2021/06/16 11:19:26;;;;;;;;;;;32.20;32.00;;;;;;4991995;28;75684;-71
2021/06/16 11:21:53;;;;;;;;;;;32.20;32.00;;;;;;4991457;28;78266;-69
2021/06/16 11:24:19;;;;;;;;;;;32.20;31.80;;;;;;4992676;28;74795;-71
2021/06/16 11:26:46;;;;;;;;;;;32.00;31.40;;;;;;4991467;28;74644;-68
2021/06/16 11:29:31;;;;;;;;;;;31.90;31.80;;;;;;4989507;28;77041;-65
2021/06/16 11:32:10;;;;;;;;;;;32.30;31.00;;;;;;4970476;28;77935;-68
2021/06/16 11:34:51;;;;;;;;;;;32.90;30.90;;;;;;4972906;28;74535;-65
2021/06/16 11:37:46;;;;;;;;;;;33.90;29.60;;;;;;4970296;28;78102;-68
2021/06/16 11:40:12;;;;;;;;;;;34.60;28.70;;;;;;4983496;28;77477;-68
2021/06/16 11:42:41;;;;;;;;;;;35.70;26.70;;;;;;4990123;28;75805;-68
2021/06/16 11:45:07;;;;;;;;;;;36.30;26.60;;;;;;4992141;28;75702;-68
2021/06/16 11:47:32;;;;;;;;;;;37.20;26.10;;;;;;4991686;28;75385;-69
2021/06/16 11:50:01;;;;;;;;;;;38.40;24.70;;;;;;4979745;28;75180;-68
2021/06/16 11:52:27;;;;;;;;;;;39.50;23.90;;;;;;4990297;28;77197;-69
2021/06/16 11:54:52;;;;;;;;;;;39.50;23.90;;;;;;4991908;28;75759;-69
2021/06/16 11:57:19;;;;;;;;;;;40.50;22.30;;;;;;4989775;28;77100;-69
2021/06/16 11:59:45;;;;;;;;;;;40.80;22.60;;;;;;4991664;28;75196;-69
2021/06/16 12:02:18;;;;;;;;;;;41.30;22.60;;;;;;4980275;28;75438;-65
2021/06/16 12:04:47;;;;;;;;;;;42.80;21.30;;;;;;4984289;28;76337;-69
2021/06/16 12:07:13;;;;;;;;;;;43.80;20.80;;;;;;4971469;28;75075;-68
2021/06/16 12:09:48;;;;;;;;;;;44.40;20.30;;;;;;4972310;28;75226;-69
2021/06/16 12:12:14;;;;;;;;;;;42.50;21.30;;;;;;4983589;28;76077;-68
2021/06/16 12:14:40;;;;;;;;;;;42.40;21.20;;;;;;4970126;28;77849;-70
2021/06/16 12:17:06;;;;;;;;;;;43.90;20.80;;;;;;4971578;28;75331;-69
2021/06/16 12:19:36;;;;;;;;;;;45.20;19.90;;;;;;4971534;28;74916;-69
2021/06/16 12:22:03;;;;;;;;;;;46.30;19.50;;;;;;4972203;28;75668;-69
2021/06/16 12:24:30;;;;;;;;;;;47.00;19.00;;;;;;4970202;28;75187;-69
2021/06/16 12:26:58;;;;;;;;;;;48.00;18.70;;;;;;4975815;28;76530;-69
2021/06/16 12:29:24;;;;;;;;;;;48.90;17.80;;;;;;4989772;28;75424;-69
2021/06/16 12:31:51;;;;;;;;;;;49.60;17.80;;;;;;4989736;28;75798;-69
2021/06/16 12:35:26;;;;;;;;;;;50.30;17.00;;;;;;4989454;28;75622;-69
2021/06/16 12:37:16;;;;;;;;;;;51.00;17.30;;;;;;4993171;28;75088;-69
2021/06/16 12:39:58;;;;;;;;;;;51.10;16.20;;;;;;4991272;28;74655;-70
2021/06/16 12:42:38;;;;;;;;;;;51.60;16.50;;;;;;4990963;28;74748;-71
2021/06/16 12:45:04;;;;;;;;;;;52.40;16.40;;;;;;4990550;28;75561;-70
2021/06/16 12:47:33;;;;;;;;;;;52.00;16.70;;;;;;4988933;28;77912;-69
2021/06/16 12:49:58;;;;;;;;;;;50.50;16.60;;;;;;4989797;28;77383;-72
2021/06/16 12:52:28;;;;;;;;;;;50.30;17.20;;;;;;4990591;28;76148;-71
2021/06/16 12:54:54;;;;;;;;;;;51.00;16.00;;;;;;4989073;28;76512;-71
2021/06/16 12:57:20;;;;;;;;;;;51.10;16.10;;;;;;4989340;28;75205;-71
2021/06/16 12:59:47;;;;;;;;;;;51.60;16.20;;;;;;4989740;28;75141;-71
2021/06/16 13:02:22;;;;;;;;;;;51.40;15.80;;;;;;4990410;28;75323;-71
2021/06/16 13:04:47;;;;;;;;;;;50.40;17.00;;;;;;4990842;28;75052;-74
2021/06/16 13:07:13;;;;;;;;;;;51.80;16.40;;;;;;4983469;28;75201;-72
2021/06/16 13:09:38;;;;;;;;;;;50.10;16.60;;;;;;4969150;28;77139;-71
2021/06/16 13:12:05;;;;;;;;;;;47.40;17.70;;;;;;4969900;28;76451;-71
2021/06/16 13:14:38;;;;;;;;;;;46.10;18.60;;;;;;4972738;28;76283;-71
2021/06/16 13:17:10;;;;;;;;;;;47.30;18.70;;;;;;5002162;28;78107;-71
2021/06/16 13:19:54;;;;;;;;;;;50.20;15.90;;;;;;4989050;28;78140;-70
2021/06/16 13:22:30;;;;;;;;;;;49.90;15.70;;;;;;4988537;28;77428;-71
2021/06/16 13:24:59;;;;;;;;;;;46.80;17.60;;;;;;4971355;28;75430;-70
2021/06/16 13:27:24;;;;;;;;;;;44.20;18.40;;;;;;4969261;28;75325;-72
2021/06/16 13:29:57;;;;;;;;;;;42.50;20.00;;;;;;4969729;28;75917;-71
2021/06/16 13:32:22;;;;;;;;;;;44.20;18.80;;;;;;4970538;28;75266;-70
2021/06/16 13:34:48;;;;;;;;;;;45.50;18.30;;;;;;4970919;28;75352;-71
2021/06/16 13:37:14;;;;;;;;;;;45.60;18.20;;;;;;4969447;28;78218;-71
2021/06/16 13:39:39;;;;;;;;;;;43.90;18.80;;;;;;4970134;28;75350;-70
2021/06/16 13:42:05;;;;;;;;;;;43.90;18.80;;;;;;4971025;28;75523;-70
2021/06/16 13:44:30;;;;;;;;;;;45.90;18.60;;;;;;4970614;28;75049;-70
2021/06/16 13:46:57;;;;;;;;;;;48.80;16.70;;;;;;4983949;28;75690;-72
2021/06/16 13:49:23;;;;;;;;;;;50.20;15.60;;;;;;4988760;28;76969;-69
2021/06/16 13:51:49;;;;;;;;;;;51.00;15.30;;;;;;4989845;28;75608;-71
2021/06/16 13:54:16;;;;;;;;;;;51.50;15.50;;;;;;4988957;28;76951;-70
2021/06/16 13:56:47;;;;;;;;;;;51.50;15.60;;;;;;4969318;28;75859;-70
2021/06/16 13:59:12;;;;;;;;;;;52.00;14.40;;;;;;4969422;28;75648;-68
2021/06/16 14:01:38;;;;;;;;;;;49.70;15.50;;;;;;4970290;28;75423;-69
2021/06/16 14:04:04;;;;;;;;;;;46.20;17.60;;;;;;4977817;28;76277;-70
2021/06/16 14:06:29;;;;;;;;;;;44.50;18.70;;;;;;4990029;28;74565;-70
2021/06/16 14:08:56;;;;;;;;;;;46.50;17.60;;;;;;4987994;28;75219;-70
2021/06/16 14:11:22;;;;;;;;;;;48.00;16.90;;;;;;4969324;28;75543;-68
2021/06/16 14:13:48;;;;;;;;;;;49.00;16.30;;;;;;4983832;28;78100;-70
2021/06/16 14:16:14;;;;;;;;;;;50.20;15.60;;;;;;4978918;28;78104;-70
2021/06/16 14:18:39;;;;;;;;;;;51.40;14.80;;;;;;4978388;28;77674;-71